createdAt,value
2022-10-11T00:01:06.006Z,99624.16
2022-10-11T00:03:34.480Z,99621.06
2022-10-11T00:06:05.869Z,99627.47
2022-10-11T00:08:35.058Z,99618.00
2022-10-11T00:11:08.656Z,99621.06
2022-10-11T00:13:37.454Z,99621.56
2022-10-11T00:16:10.561Z,99623.84
2022-10-11T00:18:39.742Z,99629.13
2022-10-11T00:21:12.031Z,99623.84
2022-10-11T00:23:40.684Z,99620.56
2022-10-11T00:26:12.290Z,99628.38
2022-10-11T00:28:41.687Z,99620.03
2022-10-11T00:31:11.695Z,99619.22
2022-10-11T00:33:40.434Z,99625.09
2022-10-11T00:36:10.543Z,99619.53
2022-10-11T00:38:38.957Z,99623.16
2022-10-11T00:41:09.161Z,99627.88
2022-10-11T00:43:37.836Z,99620.66
2022-10-11T00:46:30.262Z,99632.09
2022-10-11T00:49:05.894Z,99627.38
2022-10-11T00:51:50.859Z,99644.34
2022-10-11T00:54:25.326Z,99641.25
2022-10-11T00:57:02.642Z,99649.59
2022-10-11T00:59:40.759Z,99641.25
2022-10-11T01:02:10.495Z,99655.69
2022-10-11T01:04:40.509Z,99648.16
2022-10-11T01:07:10.041Z,99656.19
2022-10-11T01:09:38.479Z,99658.13
2022-10-11T01:12:19.864Z,99656.78
2022-10-11T01:15:13.597Z,99664.63
2022-10-11T01:17:50.878Z,99665.47
2022-10-11T01:20:52.509Z,99666.91
2022-10-11T01:24:10.589Z,99660.31
2022-10-11T01:27:29.722Z,99659.78
2022-10-11T01:30:19.420Z,99659.28
2022-10-11T01:32:59.148Z,99655.44
2022-10-11T01:35:34.758Z,99659.38
2022-10-11T01:38:10.241Z,99658.84
2022-10-11T01:40:45.452Z,99653.38
2022-10-11T01:43:16.315Z,99658.44
2022-10-11T01:45:49.117Z,99661.28
2022-10-11T01:48:17.492Z,99658.59
2022-10-11T01:50:48.476Z,99657.06
2022-10-11T01:53:43.863Z,99667.22
2022-10-11T01:56:32.055Z,99674.25
2022-10-11T01:59:21.170Z,99671.03
2022-10-11T02:01:59.164Z,99664.72
2022-10-11T02:04:33.412Z,99667.31
2022-10-11T02:07:09.078Z,99677.06
2022-10-11T02:09:46.855Z,99677.66
2022-10-11T02:12:24.660Z,99676.84
2022-10-11T02:14:57.891Z,99675.50
2022-10-11T02:17:35.627Z,99673.31
2022-10-11T02:20:13.114Z,99681.97
2022-10-11T02:22:46.709Z,99678.34
2022-10-11T02:25:22.510Z,99673.41
2022-10-11T02:27:53.181Z,99678.13
2022-10-11T02:30:21.727Z,99679.25
2022-10-11T02:32:53.022Z,99675.97
2022-10-11T02:35:25.592Z,99686.75
2022-10-11T02:38:00.605Z,99685.66
2022-10-11T02:40:33.425Z,99683.16
2022-10-11T02:43:06.582Z,99691.47
2022-10-11T02:45:40.214Z,99696.19
2022-10-11T02:48:13.017Z,99690.66
2022-10-11T02:50:42.752Z,99692.00
2022-10-11T02:53:11.557Z,99694.50
2022-10-11T02:55:40.153Z,99692.25
2022-10-11T02:58:08.484Z,99688.03
2022-10-11T03:00:36.875Z,99691.84
2022-10-11T03:03:05.353Z,99693.72
2022-10-11T03:05:40.571Z,99701.47
2022-10-11T03:08:10.035Z,99698.63
2022-10-11T03:10:38.722Z,99697.72
2022-10-11T03:13:07.271Z,99699.84
2022-10-11T03:15:35.740Z,99698.13
2022-10-11T03:18:04.138Z,99704.72
2022-10-11T03:20:33.877Z,99714.13
2022-10-11T03:23:02.260Z,99709.94
2022-10-11T03:25:30.774Z,99701.28
2022-10-11T03:27:59.114Z,99713.75
2022-10-11T03:30:27.596Z,99713.75
2022-10-11T03:32:55.964Z,99715.41
2022-10-11T03:35:24.390Z,99719.00
2022-10-11T03:37:54.106Z,99710.66
2022-10-11T03:40:22.705Z,99718.19
2022-10-11T03:42:51.042Z,99719.00
2022-10-11T03:45:19.579Z,99719.81
2022-10-11T03:47:47.921Z,99719.31
2022-10-11T03:50:16.355Z,99718.78
2022-10-11T03:52:44.733Z,99714.66
2022-10-11T03:55:14.474Z,99710.53
2022-10-11T03:57:42.829Z,99713.63
2022-10-11T04:00:12.343Z,99712.25
2022-10-11T04:02:40.758Z,99717.78
2022-10-11T04:05:11.205Z,99711.41
2022-10-11T04:07:39.655Z,99718.91
2022-10-11T04:10:09.311Z,99719.53
2022-10-11T04:12:40.034Z,99713.97
2022-10-11T04:15:09.576Z,99719.53
2022-10-11T04:17:37.891Z,99723.44
2022-10-11T04:20:08.335Z,99721.78
2022-10-11T04:22:36.737Z,99724.84
2022-10-11T04:25:05.767Z,99719.63
2022-10-11T04:27:34.153Z,99732.16
2022-10-11T04:30:04.170Z,99724.41
2022-10-11T04:32:32.599Z,99730.59
2022-10-11T04:35:00.985Z,99735.59
2022-10-11T04:37:29.348Z,99731.19
2022-10-11T04:39:57.715Z,99733.13
2022-10-11T04:42:26.064Z,99727.06
2022-10-11T04:44:54.414Z,99728.16
2022-10-11T04:47:24.245Z,99730.41
2022-10-11T04:49:52.665Z,99731.84
2022-10-11T04:52:25.390Z,99732.75
2022-10-11T04:54:54.362Z,99738.91
2022-10-11T04:57:22.730Z,99740.63
2022-10-11T04:59:51.093Z,99740.41
2022-10-11T05:02:19.790Z,99745.75
2022-10-11T05:04:49.603Z,99741.06
2022-10-11T05:07:18.271Z,99744.47
2022-10-11T05:09:46.645Z,99749.75
2022-10-11T05:12:15.024Z,99742.84
2022-10-11T05:14:43.360Z,99754.56
2022-10-11T05:17:11.727Z,99743.22
2022-10-11T05:19:40.059Z,99745.47
2022-10-11T05:22:10.321Z,99755.22
2022-10-11T05:24:39.251Z,99752.75
2022-10-11T05:27:07.792Z,99758.59
2022-10-11T05:29:36.212Z,99757.78
2022-10-11T05:32:04.714Z,99758.88
2022-10-11T05:34:33.114Z,99770.00
2022-10-11T05:37:01.495Z,99761.66
2022-10-11T05:39:31.521Z,99774.44
2022-10-11T05:41:59.882Z,99772.50
2022-10-11T05:44:28.464Z,99771.34
2022-10-11T05:46:56.854Z,99781.34
2022-10-11T05:49:25.253Z,99787.69
2022-10-11T05:51:53.612Z,99777.94
2022-10-11T05:54:22.006Z,99775.69
2022-10-11T05:56:51.748Z,99779.81
2022-10-11T05:59:20.079Z,99781.72
2022-10-11T06:01:48.503Z,99794.69
2022-10-11T06:04:19.033Z,99791.03
2022-10-11T06:06:47.420Z,99796.25
2022-10-11T06:09:15.784Z,99792.56
2022-10-11T06:11:45.509Z,99800.00
2022-10-11T06:14:15.264Z,99798.81
2022-10-11T06:16:43.671Z,99799.78
2022-10-11T06:19:12.020Z,99798.28
2022-10-11T06:21:40.529Z,99802.34
2022-10-11T06:24:09.454Z,99808.91
2022-10-11T06:26:37.851Z,99808.47
2022-10-11T06:29:06.924Z,99811.06
2022-10-11T06:31:36.714Z,99819.25
2022-10-11T06:34:05.086Z,99822.16
2022-10-11T06:36:33.487Z,99822.28
2022-10-11T06:39:02.062Z,99828.91
2022-10-11T06:41:32.045Z,99827.47
2022-10-11T06:44:00.721Z,99833.25
2022-10-11T06:46:29.893Z,99832.94
2022-10-11T06:48:59.911Z,99828.44
2022-10-11T06:51:30.143Z,99832.25
2022-10-11T06:54:02.035Z,99825.44
2022-10-11T06:56:31.563Z,99828.00
2022-10-11T06:59:01.039Z,99835.84
2022-10-11T07:01:29.439Z,99835.97
2022-10-11T07:04:01.428Z,99841.13
2022-10-11T07:06:32.648Z,99841.53
2022-10-11T07:09:02.149Z,99841.13
2022-10-11T07:11:30.989Z,99846.09
2022-10-11T07:14:02.113Z,99850.72
2022-10-11T07:16:31.131Z,99859.50
2022-10-11T07:19:03.079Z,99855.47
2022-10-11T07:21:33.288Z,99861.44
2022-10-11T07:24:03.036Z,99860.75
2022-10-11T07:26:38.314Z,99865.59
2022-10-11T07:29:07.896Z,99863.22
2022-10-11T07:31:38.756Z,99861.66
2022-10-11T07:34:08.993Z,99865.38
2022-10-11T07:36:37.930Z,99870.19
2022-10-11T07:39:08.366Z,99881.75
2022-10-11T07:41:43.081Z,99872.94
2022-10-11T07:44:14.178Z,99876.66
2022-10-11T07:46:42.540Z,99870.94
2022-10-11T07:49:12.369Z,99875.78
2022-10-11T07:51:41.059Z,99880.63
2022-10-11T07:54:09.456Z,99878.44
2022-10-11T07:56:39.997Z,99875.38
2022-10-11T07:59:08.478Z,99884.94
2022-10-11T08:01:37.039Z,99878.63
2022-10-11T08:04:06.061Z,99877.00
2022-10-11T08:06:36.771Z,99888.25
2022-10-11T08:09:05.711Z,99886.31
2022-10-11T08:11:37.230Z,99883.06
2022-10-11T08:14:09.082Z,99882.31
2022-10-11T08:16:38.265Z,99886.63
2022-10-11T08:19:07.532Z,99881.41
2022-10-11T08:21:37.554Z,99883.41
2022-10-11T08:24:07.805Z,99894.31
2022-10-11T08:26:36.917Z,99886.44
2022-10-11T08:29:05.453Z,99885.34
2022-10-11T08:31:35.743Z,99883.88
2022-10-11T08:34:04.410Z,99892.84
2022-10-11T08:36:33.369Z,99890.53
2022-10-11T08:39:03.141Z,99891.38
2022-10-11T08:41:40.434Z,99896.66
2022-10-11T08:44:46.400Z,99898.31
2022-10-11T08:47:29.040Z,99904.06
2022-10-11T08:49:59.324Z,99892.22
2022-10-11T08:52:34.912Z,99896.00
2022-10-11T08:55:09.078Z,99891.72
2022-10-11T08:57:40.709Z,99902.41
2022-10-11T09:00:15.854Z,99903.25
2022-10-11T09:03:07.408Z,99900.25
2022-10-11T09:05:55.693Z,99904.56
2022-10-11T09:08:34.648Z,99898.16
2022-10-11T09:11:13.748Z,99903.59
2022-10-11T09:14:15.346Z,99902.25
2022-10-11T09:17:01.615Z,99908.19
2022-10-11T09:19:52.407Z,99910.00
2022-10-11T09:22:32.461Z,99899.97
2022-10-11T09:25:20.170Z,99900.47
2022-10-11T09:28:06.312Z,99901.44
2022-10-11T09:30:35.163Z,99911.16
2022-10-11T09:33:14.619Z,99912.66
2022-10-11T09:35:47.456Z,99912.50
2022-10-11T09:38:36.904Z,99907.06
2022-10-11T09:41:16.515Z,99909.38
2022-10-11T09:43:50.866Z,99912.34
2022-10-11T09:46:30.925Z,99909.53
2022-10-11T09:49:00.178Z,99912.50
2022-10-11T09:51:29.932Z,99912.00
2022-10-11T09:54:01.575Z,99909.53
2022-10-11T09:56:32.984Z,99905.59
2022-10-11T09:59:28.032Z,99909.53
2022-10-11T10:02:23.878Z,99910.38
2022-10-11T10:05:14.842Z,99910.53
2022-10-11T10:08:07.160Z,99901.63
2022-10-11T10:10:40.320Z,99904.59
2022-10-11T10:13:22.926Z,99908.88
2022-10-11T10:15:56.668Z,99902.94
2022-10-11T10:18:34.870Z,99910.88
2022-10-11T10:21:04.752Z,99914.50
2022-10-11T10:23:36.477Z,99910.84
2022-10-11T10:26:18.152Z,99906.53
2022-10-11T10:29:18.651Z,99912.56
2022-10-11T10:34:59.442Z,99906.81
2022-10-11T10:37:36.022Z,99904.00
2022-10-11T10:40:09.595Z,99903.84
2022-10-11T10:42:38.776Z,99904.19
2022-10-11T10:45:21.149Z,99901.59
2022-10-11T10:48:17.646Z,99888.69
2022-10-11T10:50:55.775Z,99896.34
2022-10-11T10:53:33.636Z,99887.34
2022-10-11T10:56:10.960Z,99884.38
2022-10-11T10:59:19.717Z,99893.66
2022-10-11T11:01:57.138Z,99890.06
2022-10-11T11:04:34.294Z,99888.59
2022-10-11T11:07:15.236Z,99900.03
2022-10-11T11:09:55.425Z,99889.53
2022-10-11T11:12:41.022Z,99890.31
2022-10-11T11:15:19.745Z,99881.00
2022-10-11T11:18:06.065Z,99882.53
2022-10-11T11:20:56.172Z,99887.91
2022-10-11T11:23:34.514Z,99872.47
2022-10-11T11:26:12.102Z,99877.47
2022-10-11T11:28:56.972Z,99877.88
2022-10-11T11:31:46.139Z,99885.63
2022-10-11T11:34:23.142Z,99876.66
2022-10-11T11:36:59.070Z,99878.19
2022-10-11T11:39:33.553Z,99872.81
2022-10-11T11:42:08.930Z,99879.31
2022-10-11T11:44:43.724Z,99867.97
2022-10-11T11:47:20.738Z,99872.97
2022-10-11T11:49:56.463Z,99869.28
2022-10-11T11:52:33.028Z,99862.63
2022-10-11T11:55:12.237Z,99865.72
2022-10-11T11:58:02.082Z,99867.13
2022-10-11T12:00:54.351Z,99857.06
2022-10-11T12:03:28.917Z,99855.16
2022-10-11T12:06:35.947Z,99857.22
2022-10-11T12:09:21.656Z,99855.63
2022-10-11T12:11:56.379Z,99855.22
2022-10-11T12:14:38.736Z,99847.47
2022-10-11T12:17:18.366Z,99854.81
2022-10-11T12:20:14.546Z,99864.97
2022-10-11T12:22:58.272Z,99851.06
2022-10-11T12:25:43.244Z,99847.72
2022-10-11T12:29:00.721Z,99850.56
2022-10-11T12:31:33.749Z,99845.75
2022-10-11T12:34:38.573Z,99842.91
2022-10-11T12:37:51.653Z,99847.78
2022-10-11T12:40:41.920Z,99840.81
2022-10-11T12:43:34.052Z,99840.31
2022-10-11T12:46:41.402Z,99845.91
2022-10-11T12:49:47.971Z,99844.34
2022-10-11T12:52:34.662Z,99840.97
2022-10-11T12:55:31.131Z,99839.16
2022-10-11T12:58:28.790Z,99849.09
2022-10-11T13:01:23.148Z,99845.25
2022-10-11T13:04:06.467Z,99846.03
2022-10-11T13:06:44.868Z,99838.97
2022-10-11T13:09:22.011Z,99839.38
2022-10-11T13:11:55.316Z,99850.81
2022-10-11T13:14:28.617Z,99842.22
2022-10-11T13:17:09.660Z,99844.44
2022-10-11T13:22:22.085Z,99843.41
2022-10-11T13:24:51.310Z,99840.91
2022-10-11T13:27:23.041Z,99844.72
2022-10-11T13:29:55.816Z,99851.66
2022-10-11T13:32:28.265Z,99850.31
2022-10-11T13:34:59.676Z,99846.06
2022-10-11T13:37:30.895Z,99847.47
2022-10-11T13:39:59.653Z,99850.91
2022-10-11T13:42:32.109Z,99855.19
2022-10-11T13:45:02.302Z,99853.84
2022-10-11T13:47:32.980Z,99859.44
2022-10-11T13:50:19.682Z,99858.06
2022-10-11T13:52:58.043Z,99851.63
2022-10-11T13:55:33.636Z,99854.13
2022-10-11T13:58:04.473Z,99867.13
2022-10-11T14:00:40.524Z,99860.63
2022-10-11T14:03:21.322Z,99861.81
2022-10-11T14:05:56.932Z,99866.41
2022-10-11T14:08:32.676Z,99866.59
2022-10-11T14:11:06.038Z,99866.41
2022-10-11T14:13:38.742Z,99860.03
2022-10-11T14:16:11.333Z,99863.41
2022-10-11T14:18:45.703Z,99864.41
2022-10-11T14:21:33.502Z,99861.19
2022-10-11T14:24:06.183Z,99863.16
2022-10-11T14:26:37.966Z,99861.13
2022-10-11T14:29:12.631Z,99869.63
2022-10-11T14:31:43.019Z,99866.06
2022-10-11T14:34:19.882Z,99869.59
2022-10-11T14:36:50.611Z,99870.47
2022-10-11T14:39:21.649Z,99872.38
2022-10-11T14:41:51.234Z,99872.88
2022-10-11T14:44:20.929Z,99873.72
2022-10-11T14:46:54.523Z,99874.84
2022-10-11T14:49:26.120Z,99877.72
2022-10-11T14:51:56.609Z,99882.13
2022-10-11T14:54:27.466Z,99880.13
2022-10-11T14:56:58.851Z,99883.06
2022-10-11T14:59:32.710Z,99880.38
2022-10-11T15:02:02.790Z,99878.13
2022-10-11T15:04:31.238Z,99876.19
2022-10-11T15:07:00.120Z,99885.22
2022-10-11T15:09:28.546Z,99879.81
2022-10-11T15:11:57.997Z,99878.41
2022-10-11T15:14:27.181Z,99883.75
2022-10-11T15:16:56.344Z,99879.88
2022-10-11T15:19:26.729Z,99883.91
2022-10-11T15:21:55.153Z,99879.22
2022-10-11T15:24:23.511Z,99887.19
2022-10-11T15:26:51.965Z,99894.09
2022-10-11T15:29:21.992Z,99885.59
2022-10-11T15:31:50.452Z,99890.47
2022-10-11T15:34:18.869Z,99884.88
2022-10-11T15:36:50.039Z,99897.38
2022-10-11T15:39:28.352Z,99901.38
2022-10-11T15:41:56.902Z,99893.50
2022-10-11T15:44:25.519Z,99896.31
2022-10-11T15:46:54.081Z,99891.59
2022-10-11T15:49:22.447Z,99895.94
2022-10-11T15:51:52.341Z,99900.78
2022-10-11T15:54:20.735Z,99903.94
2022-10-11T15:56:49.167Z,99895.09
2022-10-11T15:59:17.566Z,99906.31
2022-10-11T16:01:47.037Z,99909.59
2022-10-11T16:04:15.464Z,99902.84
2022-10-11T16:06:43.911Z,99908.66
2022-10-11T16:09:13.629Z,99899.94
2022-10-11T16:11:41.978Z,99914.13
2022-10-11T16:14:10.404Z,99913.63
2022-10-11T16:16:38.761Z,99919.88
2022-10-11T16:19:07.152Z,99919.41
2022-10-11T16:21:35.526Z,99922.84
2022-10-11T16:24:04.837Z,99916.78
2022-10-11T16:26:34.682Z,99929.44
2022-10-11T16:29:03.055Z,99922.03
2022-10-11T16:31:31.465Z,99925.50
2022-10-11T16:33:59.849Z,99928.16
2022-10-11T16:36:36.129Z,99926.69
2022-10-11T16:39:09.447Z,99930.78
2022-10-11T16:41:39.369Z,99934.25
2022-10-11T16:44:08.571Z,99934.03
2022-10-11T16:46:36.989Z,99935.88
2022-10-11T16:49:05.868Z,99932.41
2022-10-11T16:51:34.324Z,99935.69
2022-10-11T16:54:02.972Z,99944.22
2022-10-11T16:56:37.294Z,99948.00
2022-10-11T16:59:09.942Z,99961.00
2022-10-11T17:01:39.040Z,99947.50
2022-10-11T17:04:08.145Z,99950.97
2022-10-11T17:06:36.613Z,99956.38
2022-10-11T17:09:05.893Z,99948.97
2022-10-11T17:11:35.003Z,99958.84
2022-10-11T17:14:05.815Z,99963.09
2022-10-11T17:16:36.166Z,99959.31
2022-10-11T17:19:05.013Z,99967.19
2022-10-11T17:21:33.774Z,99962.06
2022-10-11T17:24:02.771Z,99974.03
2022-10-11T17:26:31.770Z,99970.88
2022-10-11T17:29:01.464Z,99969.34
2022-10-11T17:31:30.974Z,99972.81
2022-10-11T17:34:02.355Z,99968.69
2022-10-11T17:36:35.477Z,99963.44
2022-10-11T17:39:08.945Z,99967.69
2022-10-11T17:41:37.787Z,99967.69
2022-10-11T17:44:07.130Z,99967.19
2022-10-11T17:46:36.213Z,99963.88
2022-10-11T17:49:08.741Z,99970.13
2022-10-11T17:51:39.527Z,99967.97
2022-10-11T17:54:12.495Z,99962.84
2022-10-11T17:56:43.173Z,99972.47
2022-10-11T17:59:18.355Z,99973.25
2022-10-11T18:01:47.141Z,99964.38
2022-10-11T18:04:18.046Z,99970.59
2022-10-11T18:06:48.879Z,99966.19
2022-10-11T18:09:19.331Z,99965.97
2022-10-11T18:11:48.198Z,99969.94
2022-10-11T18:14:18.490Z,99983.69
2022-10-11T18:16:47.664Z,99979.03
2022-10-11T18:19:18.445Z,99989.50
2022-10-11T18:21:47.316Z,99991.59
2022-10-11T18:24:18.477Z,99985.63
2022-10-11T18:26:50.341Z,99983.06
2022-10-11T18:29:19.497Z,99994.19
2022-10-11T18:31:48.898Z,99990.31
2022-10-11T18:34:18.911Z,99993.31
2022-10-11T18:36:48.070Z,99989.63
2022-10-11T18:39:17.888Z,99991.66
2022-10-11T18:41:47.389Z,99995.38
2022-10-11T18:44:17.775Z,99995.19
2022-10-11T18:46:50.835Z,99996.13
2022-10-11T18:49:21.046Z,99997.59
2022-10-11T18:51:50.304Z,99995.63
2022-10-11T18:54:21.480Z,99999.22
2022-10-11T18:56:50.826Z,99993.34
2022-10-11T18:59:21.661Z,99991.06
2022-10-11T19:01:52.576Z,99986.31
2022-10-11T19:04:24.045Z,99996.03
2022-10-11T19:06:53.783Z,99991.47
2022-10-11T19:09:26.643Z,99986.09
2022-10-11T19:11:57.400Z,99989.13
2022-10-11T19:14:28.772Z,99986.50
2022-10-11T19:16:58.692Z,99990.31
2022-10-11T19:19:32.041Z,99978.03
2022-10-11T19:22:03.377Z,99986.28
2022-10-11T19:24:33.379Z,99982.06
2022-10-11T19:27:03.292Z,99985.34
2022-10-11T19:29:33.131Z,99983.06
2022-10-11T19:32:04.163Z,99984.06
2022-10-11T19:34:35.850Z,99989.38
2022-10-11T19:37:04.922Z,99987.88
2022-10-11T19:39:33.807Z,99985.91
2022-10-11T19:42:04.408Z,99982.84
2022-10-11T19:44:37.289Z,99985.31
2022-10-11T19:47:10.219Z,99982.19
2022-10-11T19:49:40.564Z,99985.31
2022-10-11T19:52:09.635Z,99986.94
2022-10-11T19:54:38.312Z,99990.88
2022-10-11T19:57:08.801Z,99992.84
2022-10-11T19:59:39.705Z,99995.97
2022-10-11T20:02:08.773Z,99994.00
2022-10-11T20:04:52.105Z,99997.09
2022-10-11T20:07:21.742Z,99994.00
2022-10-11T20:09:50.477Z,99998.41
2022-10-11T20:12:18.921Z,99996.47
2022-10-11T20:14:47.502Z,99996.47
2022-10-11T20:17:16.225Z,99995.31
2022-10-11T20:19:46.391Z,99997.91
2022-10-11T20:22:14.811Z,99994.63
2022-10-11T20:24:43.331Z,99995.75
2022-10-11T20:27:12.978Z,99998.03
2022-10-11T20:29:41.381Z,100006.41
2022-10-11T20:32:09.792Z,100007.22
2022-10-11T20:34:39.541Z,100010.34
2022-10-11T20:37:09.324Z,100012.31
2022-10-11T20:39:37.688Z,100001.47
2022-10-11T20:42:06.271Z,99996.19
2022-10-11T20:44:34.617Z,99997.34
2022-10-11T20:47:04.195Z,100001.25
2022-10-11T20:49:32.770Z,100005.16
2022-10-11T20:52:01.147Z,100005.81
2022-10-11T20:54:34.177Z,100020.38
2022-10-11T20:57:03.038Z,100023.50
2022-10-11T20:59:31.386Z,100018.88
2022-10-11T21:01:59.760Z,100025.06
2022-10-11T21:04:28.167Z,100015.66
2022-10-11T21:06:56.550Z,100025.78
2022-10-11T21:09:25.083Z,100019.97
2022-10-11T21:11:54.805Z,100013.69
2022-10-11T21:14:23.359Z,100017.41
2022-10-11T21:16:51.711Z,100016.38
2022-10-11T21:19:20.039Z,100028.97
2022-10-11T21:21:53.327Z,100027.13
2022-10-11T21:24:22.687Z,100020.50
2022-10-11T21:26:51.201Z,100027.53
2022-10-11T21:29:21.008Z,100034.56
2022-10-11T21:31:49.781Z,100037.34
2022-10-11T21:34:18.403Z,100034.03
2022-10-11T21:36:46.854Z,100035.19
2022-10-11T21:39:15.286Z,100035.81
2022-10-11T21:41:43.681Z,100035.28
2022-10-11T21:44:12.033Z,100036.72
2022-10-11T21:47:05.614Z,100035.69
2022-10-11T21:49:30.417Z,100035.16
2022-10-11T21:51:59.000Z,100030.72
2022-10-11T21:54:27.546Z,100034.34
2022-10-11T21:56:55.965Z,100025.16
2022-10-11T21:59:24.396Z,100018.75
2022-10-11T22:01:56.995Z,100018.75
2022-10-11T22:04:29.276Z,100027.13
2022-10-11T22:06:57.644Z,100019.38
2022-10-11T22:09:27.792Z,100023.31
2022-10-11T22:11:56.254Z,100020.00
2022-10-11T22:14:25.426Z,100015.53
2022-10-11T22:16:55.204Z,100021.13
2022-10-11T22:19:23.882Z,100012.56
2022-10-11T22:21:52.298Z,100016.47
2022-10-11T22:24:20.676Z,100011.22
2022-10-11T22:26:49.152Z,100014.28
2022-10-11T22:29:17.526Z,100014.94
2022-10-11T22:31:45.873Z,100007.69
2022-10-11T22:34:15.612Z,100009.97
2022-10-11T22:36:43.982Z,100009.44
2022-10-11T22:39:12.344Z,100008.38
2022-10-11T22:41:40.705Z,100007.88
2022-10-11T22:44:09.065Z,100009.31
2022-10-11T22:46:37.398Z,100004.03
2022-10-11T22:49:05.963Z,100008.25
2022-10-11T22:51:35.707Z,100013.28
2022-10-11T22:54:04.085Z,100012.47
2022-10-11T22:56:32.435Z,100006.91
2022-10-11T22:59:00.990Z,100009.69
2022-10-11T23:01:29.338Z,100004.09
2022-10-11T23:03:57.815Z,100004.94
2022-10-11T23:06:26.427Z,100004.09
2022-10-11T23:08:56.402Z,100010.81
2022-10-11T23:11:24.773Z,100009.69
2022-10-11T23:13:53.119Z,100014.97
2022-10-11T23:16:21.477Z,100011.84
2022-10-11T23:18:52.719Z,100012.69
2022-10-11T23:21:21.385Z,100014.88
2022-10-11T23:23:49.822Z,100013.13
2022-10-11T23:26:19.661Z,100023.13
2022-10-11T23:28:48.152Z,100024.22
2022-10-11T23:31:18.821Z,100022.78
2022-10-11T23:33:47.935Z,100016.88
2022-10-11T23:36:17.580Z,100025.25
2022-10-11T23:38:46.377Z,100026.91
2022-10-11T23:41:14.865Z,100034.13
2022-10-11T23:43:44.659Z,100032.16
2022-10-11T23:46:13.030Z,100036.59
2022-10-11T23:48:41.483Z,100033.78
2022-10-11T23:51:10.257Z,100035.78
2022-10-11T23:53:39.380Z,100025.44
2022-10-11T23:56:09.540Z,100023.28
2022-10-11T23:58:37.897Z,100020.78
